createdAt,value
2023-03-30T00:00:46.396Z,100.00
2023-03-30T00:03:12.955Z,100.00
2023-03-30T00:05:39.973Z,100.00
2023-03-30T00:08:06.379Z,100.00
2023-03-30T00:10:32.711Z,100.00
2023-03-30T00:12:59.029Z,100.00
2023-03-30T00:15:25.835Z,100.00
2023-03-30T00:17:54.882Z,100.00
2023-03-30T00:20:22.151Z,100.00
2023-03-30T00:22:48.528Z,100.00
2023-03-30T00:25:17.235Z,100.00
2023-03-30T00:27:44.014Z,100.00
2023-03-30T00:30:14.417Z,100.00
2023-03-30T00:32:42.679Z,100.00
2023-03-30T00:35:10.604Z,100.00
2023-03-30T00:37:37.319Z,100.00
2023-03-30T00:40:09.931Z,100.00
2023-03-30T00:42:37.352Z,100.00
2023-03-30T00:45:19.485Z,100.00
2023-03-30T00:48:02.995Z,100.00
2023-03-30T00:50:44.539Z,100.00
2023-03-30T00:53:24.483Z,100.00
2023-03-30T00:55:53.570Z,100.00
2023-03-30T00:58:22.378Z,100.00
2023-03-30T01:00:49.327Z,100.00
2023-03-30T01:03:27.617Z,100.00
2023-03-30T01:05:56.837Z,100.00
2023-03-30T01:08:27.099Z,100.00
2023-03-30T01:10:53.744Z,100.00
2023-03-30T01:13:20.657Z,100.00
2023-03-30T01:16:01.176Z,100.00
2023-03-30T01:18:37.318Z,100.00
2023-03-30T01:21:48.821Z,100.00
2023-03-30T01:24:27.612Z,100.00
2023-03-30T01:27:02.140Z,100.00
2023-03-30T01:30:01.407Z,100.00
2023-03-30T01:32:46.600Z,100.00
2023-03-30T01:35:46.046Z,100.00
2023-03-30T01:38:18.474Z,100.00
2023-03-30T01:41:11.579Z,100.00
2023-03-30T01:43:50.949Z,100.00
2023-03-30T01:46:25.101Z,100.00
2023-03-30T01:49:12.281Z,100.00
2023-03-30T01:51:51.024Z,100.00
2023-03-30T01:54:24.135Z,100.00
2023-03-30T01:57:02.419Z,100.00
2023-03-30T01:59:36.523Z,100.00
2023-03-30T02:02:07.048Z,100.00
2023-03-30T02:04:38.686Z,100.00
2023-03-30T02:07:10.431Z,100.00
2023-03-30T02:09:39.841Z,97.59
2023-03-30T02:12:09.149Z,96.77
2023-03-30T02:14:39.269Z,96.11
2023-03-30T02:17:11.861Z,98.53
2023-03-30T02:19:38.279Z,99.51
2023-03-30T02:22:06.212Z,99.50
2023-03-30T02:24:33.517Z,99.15
2023-03-30T02:27:04.311Z,98.93
2023-03-30T02:29:32.002Z,96.90
2023-03-30T02:32:00.615Z,95.89
2023-03-30T02:34:28.874Z,95.12
2023-03-30T02:37:26.545Z,95.01
2023-03-30T02:39:59.017Z,94.82
2023-03-30T02:42:39.274Z,95.22
2023-03-30T02:45:20.738Z,94.64
2023-03-30T02:47:59.581Z,94.90
2023-03-30T02:50:48.364Z,95.95
2023-03-30T02:54:13.214Z,96.58
2023-03-30T02:57:22.634Z,97.82
2023-03-30T03:00:01.976Z,97.87
2023-03-30T03:02:34.331Z,97.77
2023-03-30T03:05:16.480Z,97.22
2023-03-30T03:07:53.496Z,97.15
2023-03-30T03:10:19.883Z,96.45
2023-03-30T03:12:46.739Z,96.54
2023-03-30T03:15:13.860Z,99.38
2023-03-30T03:17:52.639Z,100.00
2023-03-30T03:20:19.872Z,100.00
2023-03-30T03:22:46.325Z,100.00
2023-03-30T03:25:12.767Z,100.00
2023-03-30T03:27:52.395Z,100.00
2023-03-30T03:30:23.683Z,100.00
2023-03-30T03:33:00.719Z,100.00
2023-03-30T03:35:29.855Z,100.00
2023-03-30T03:37:56.172Z,100.00
2023-03-30T03:40:22.933Z,100.00
2023-03-30T03:42:50.609Z,100.00
2023-03-30T03:45:17.217Z,100.00
2023-03-30T03:47:55.828Z,100.00
2023-03-30T03:50:33.628Z,100.00
2023-03-30T03:53:00.233Z,100.00
2023-03-30T03:55:28.443Z,100.00
2023-03-30T03:57:54.770Z,100.00
2023-03-30T04:00:22.611Z,100.00
2023-03-30T04:02:52.239Z,100.00
2023-03-30T04:05:19.075Z,100.00
2023-03-30T04:07:48.264Z,100.00
2023-03-30T04:10:15.379Z,100.00
2023-03-30T04:12:56.678Z,100.00
2023-03-30T04:15:43.001Z,100.00
2023-03-30T04:18:33.275Z,100.00
2023-03-30T04:21:25.116Z,100.00
2023-03-30T04:24:12.108Z,100.00
2023-03-30T04:26:57.568Z,100.00
2023-03-30T04:29:42.058Z,100.00
2023-03-30T04:32:54.634Z,100.00
2023-03-30T04:35:41.349Z,100.00
2023-03-30T04:38:27.957Z,100.00
2023-03-30T04:41:06.553Z,100.00
2023-03-30T04:43:45.736Z,100.00
2023-03-30T04:46:23.711Z,100.00
2023-03-30T04:49:19.792Z,100.00
2023-03-30T04:52:06.516Z,100.00
2023-03-30T04:54:55.854Z,100.00
2023-03-30T04:57:40.895Z,100.00
2023-03-30T05:00:27.507Z,100.00
2023-03-30T05:03:23.013Z,100.00
2023-03-30T05:05:57.865Z,100.00
2023-03-30T05:08:46.527Z,100.00
2023-03-30T05:11:22.987Z,100.00
2023-03-30T05:14:00.253Z,100.00
2023-03-30T05:16:39.055Z,100.00
2023-03-30T05:19:37.742Z,100.00
2023-03-30T05:22:21.000Z,100.00
2023-03-30T05:24:58.363Z,100.00
2023-03-30T05:27:40.279Z,100.00
2023-03-30T05:30:46.578Z,100.00
2023-03-30T05:33:38.857Z,100.00
2023-03-30T05:36:18.381Z,100.00
2023-03-30T05:39:04.880Z,99.69
2023-03-30T05:41:48.930Z,99.66
2023-03-30T05:44:44.756Z,98.24
2023-03-30T05:47:29.648Z,97.57
2023-03-30T05:50:09.144Z,95.70
2023-03-30T05:52:46.772Z,95.53
2023-03-30T05:55:23.621Z,95.18
2023-03-30T05:58:16.789Z,94.68
2023-03-30T06:00:52.439Z,93.45
2023-03-30T06:03:29.571Z,93.46
2023-03-30T06:05:56.446Z,93.09
2023-03-30T06:08:23.105Z,92.93
2023-03-30T06:10:57.255Z,93.08
2023-03-30T06:13:27.163Z,93.83
2023-03-30T06:15:57.376Z,94.28
2023-03-30T06:18:26.339Z,94.89
2023-03-30T06:21:07.154Z,95.50
2023-03-30T06:23:47.145Z,96.32
2023-03-30T06:26:17.874Z,97.17
2023-03-30T06:28:45.235Z,96.53
2023-03-30T06:31:12.334Z,97.54
2023-03-30T06:33:41.923Z,98.13
2023-03-30T06:36:12.224Z,98.90
2023-03-30T06:38:41.042Z,99.13
2023-03-30T06:41:09.888Z,99.15
2023-03-30T06:43:39.493Z,99.29
2023-03-30T06:46:16.201Z,100.00
2023-03-30T06:48:48.325Z,100.00
2023-03-30T06:51:40.495Z,100.00
2023-03-30T06:54:07.849Z,100.00
2023-03-30T06:56:36.168Z,100.00
2023-03-30T06:59:09.281Z,100.00
2023-03-30T07:01:55.609Z,100.00
2023-03-30T07:04:35.576Z,100.00
2023-03-30T07:07:19.717Z,100.00
2023-03-30T07:09:46.506Z,100.00
2023-03-30T07:12:12.924Z,100.00
2023-03-30T07:14:39.600Z,100.00
2023-03-30T07:17:07.629Z,100.00
2023-03-30T07:19:34.160Z,100.00
2023-03-30T07:22:00.895Z,100.00
2023-03-30T07:24:27.732Z,100.00
2023-03-30T07:26:54.179Z,100.00
2023-03-30T07:29:20.711Z,100.00
2023-03-30T07:31:51.549Z,100.00
2023-03-30T07:34:19.593Z,100.00
2023-03-30T07:36:52.450Z,100.00
2023-03-30T07:39:19.315Z,100.00
2023-03-30T07:41:48.049Z,100.00
2023-03-30T07:44:14.684Z,100.00
2023-03-30T07:46:41.291Z,100.00
2023-03-30T07:49:12.830Z,100.00
2023-03-30T07:51:39.536Z,100.00
2023-03-30T07:54:13.142Z,100.00
2023-03-30T07:56:57.180Z,100.00
2023-03-30T07:59:23.865Z,100.00
2023-03-30T08:01:54.442Z,100.00
2023-03-30T08:04:37.526Z,100.00
2023-03-30T08:07:04.526Z,100.00
2023-03-30T08:09:31.294Z,100.00
2023-03-30T08:11:57.744Z,100.00
2023-03-30T08:14:27.159Z,100.00
2023-03-30T08:16:54.164Z,100.00
2023-03-30T08:19:23.373Z,100.00
2023-03-30T08:21:49.755Z,100.00
2023-03-30T08:24:16.097Z,100.00
2023-03-30T08:26:43.370Z,100.00
2023-03-30T08:29:10.609Z,100.00
2023-03-30T08:31:37.457Z,97.32
2023-03-30T08:34:04.468Z,96.64
2023-03-30T08:36:31.500Z,97.14
2023-03-30T08:38:57.974Z,96.16
2023-03-30T08:41:24.224Z,97.33
2023-03-30T08:44:09.449Z,97.53
2023-03-30T08:46:35.914Z,98.36
2023-03-30T08:49:08.067Z,97.91
2023-03-30T08:51:35.847Z,97.14
2023-03-30T08:54:07.139Z,96.64
2023-03-30T08:56:44.430Z,97.12
2023-03-30T08:59:38.527Z,95.95
2023-03-30T09:02:18.932Z,96.39
2023-03-30T09:04:57.132Z,94.71
2023-03-30T09:07:27.263Z,95.04
2023-03-30T09:09:57.152Z,93.70
2023-03-30T09:12:46.099Z,93.99
2023-03-30T09:15:18.130Z,92.07
2023-03-30T09:17:55.784Z,92.46
2023-03-30T09:20:26.026Z,92.20
2023-03-30T09:22:55.819Z,92.09
2023-03-30T09:25:34.379Z,91.47
2023-03-30T09:28:12.191Z,89.45
2023-03-30T09:30:46.947Z,88.21
2023-03-30T09:33:41.840Z,88.58
2023-03-30T09:36:14.177Z,89.01
2023-03-30T09:38:41.913Z,87.00
2023-03-30T09:41:23.468Z,85.86
2023-03-30T09:43:51.430Z,84.40
2023-03-30T09:46:18.129Z,83.70
2023-03-30T09:48:50.404Z,82.44
2023-03-30T09:51:21.587Z,84.04
2023-03-30T09:53:50.056Z,81.48
2023-03-30T09:56:28.629Z,79.83
2023-03-30T09:58:56.027Z,78.99
2023-03-30T10:01:34.305Z,78.63
2023-03-30T10:04:12.230Z,80.37
2023-03-30T10:06:46.915Z,79.13
2023-03-30T10:09:14.068Z,78.45
2023-03-30T10:11:45.617Z,78.75
2023-03-30T10:14:31.480Z,78.30
2023-03-30T10:16:59.267Z,75.60
2023-03-30T10:19:26.739Z,75.08
2023-03-30T10:21:55.550Z,76.72
2023-03-30T10:24:24.829Z,76.44
2023-03-30T10:27:11.950Z,78.33
2023-03-30T10:29:38.416Z,74.17
2023-03-30T10:32:17.093Z,71.27
2023-03-30T10:35:05.225Z,68.91
2023-03-30T10:37:38.344Z,67.84
2023-03-30T10:40:32.412Z,66.12
2023-03-30T10:43:00.625Z,66.18
2023-03-30T10:45:36.149Z,65.91
2023-03-30T10:48:36.607Z,68.51
2023-03-30T10:51:21.647Z,66.78
2023-03-30T10:54:06.862Z,66.67
2023-03-30T10:56:41.132Z,65.26
2023-03-30T10:59:19.997Z,62.98
2023-03-30T11:01:54.988Z,63.40
2023-03-30T11:04:31.660Z,61.23
2023-03-30T11:07:00.956Z,59.72
2023-03-30T11:09:37.792Z,54.34
2023-03-30T11:12:12.345Z,56.34
2023-03-30T11:14:48.876Z,53.80
2023-03-30T11:17:23.455Z,51.03
2023-03-30T11:19:55.540Z,50.06
2023-03-30T11:22:38.238Z,52.03
2023-03-30T11:25:19.539Z,53.48
2023-03-30T11:28:03.094Z,53.45
2023-03-30T11:30:33.782Z,52.25
2023-03-30T11:33:19.064Z,52.52
2023-03-30T11:35:48.183Z,51.83
2023-03-30T11:38:50.363Z,51.74
2023-03-30T11:41:31.767Z,49.75
2023-03-30T11:43:58.103Z,48.20
2023-03-30T11:46:46.181Z,49.87
2023-03-30T11:49:24.455Z,53.98
2023-03-30T11:52:13.319Z,56.06
2023-03-30T11:55:06.958Z,58.93
2023-03-30T11:57:40.154Z,60.18
2023-03-30T12:00:30.972Z,60.83
2023-03-30T12:03:22.472Z,62.48
2023-03-30T12:06:00.013Z,63.52
2023-03-30T12:08:45.184Z,63.12
2023-03-30T12:11:33.148Z,64.94
2023-03-30T12:14:00.744Z,65.47
2023-03-30T12:16:44.983Z,67.52
2023-03-30T12:19:27.890Z,68.01
2023-03-30T12:22:04.140Z,68.99
2023-03-30T12:24:41.953Z,70.54
2023-03-30T12:27:11.596Z,69.33
2023-03-30T12:32:28.800Z,65.36
2023-03-30T12:34:57.788Z,63.62
2023-03-30T12:37:33.291Z,64.84
2023-03-30T12:40:06.623Z,65.33
2023-03-30T12:42:35.240Z,67.82
2023-03-30T12:45:12.578Z,68.13
2023-03-30T12:47:57.853Z,69.23
2023-03-30T12:50:45.320Z,70.78
2023-03-30T12:53:46.372Z,73.87
2023-03-30T12:56:28.864Z,74.57
2023-03-30T12:59:01.049Z,75.19
2023-03-30T13:01:52.245Z,79.22
2023-03-30T13:04:25.349Z,87.81
2023-03-30T13:07:01.917Z,88.08
2023-03-30T13:09:32.132Z,89.28
2023-03-30T13:11:58.886Z,86.68
2023-03-30T13:14:34.058Z,87.87
2023-03-30T13:17:00.673Z,84.06
2023-03-30T13:19:32.977Z,84.31
2023-03-30T13:22:11.424Z,84.75
2023-03-30T13:24:57.905Z,85.32
2023-03-30T13:27:29.577Z,86.60
2023-03-30T13:30:13.824Z,84.74
2023-03-30T13:32:56.286Z,83.04
2023-03-30T13:36:01.366Z,83.68
2023-03-30T13:38:40.240Z,80.85
2023-03-30T13:41:28.072Z,83.75
2023-03-30T13:43:54.320Z,83.43
2023-03-30T13:46:33.197Z,84.24
2023-03-30T13:49:21.668Z,84.80
2023-03-30T13:51:48.969Z,86.37
2023-03-30T13:54:25.407Z,84.30
2023-03-30T13:57:03.846Z,81.80
2023-03-30T13:59:33.161Z,78.74
2023-03-30T14:02:01.358Z,78.62
2023-03-30T14:04:34.406Z,81.10
2023-03-30T14:07:13.853Z,81.57
2023-03-30T14:09:40.481Z,81.26
2023-03-30T14:12:07.679Z,82.10
2023-03-30T14:14:46.289Z,82.01
2023-03-30T14:17:21.680Z,79.39
2023-03-30T14:20:06.376Z,77.75
2023-03-30T14:22:39.765Z,81.28
2023-03-30T14:25:22.937Z,76.34
2023-03-30T14:27:49.319Z,76.69
2023-03-30T14:30:29.045Z,78.08
2023-03-30T14:33:06.959Z,75.91
2023-03-30T14:35:34.433Z,75.94
2023-03-30T14:38:13.781Z,76.03
2023-03-30T14:40:43.755Z,71.94
2023-03-30T14:43:15.940Z,73.05
2023-03-30T14:45:43.029Z,73.72
2023-03-30T14:48:32.058Z,73.55
2023-03-30T14:51:00.852Z,72.06
2023-03-30T14:53:29.165Z,72.12
2023-03-30T14:56:00.126Z,71.74
2023-03-30T14:58:29.795Z,69.38
2023-03-30T15:00:59.624Z,71.63
2023-03-30T15:03:34.558Z,71.55
2023-03-30T15:06:06.699Z,69.19
2023-03-30T15:08:36.829Z,70.28
2023-03-30T15:11:14.613Z,70.65
2023-03-30T15:13:48.495Z,71.49
2023-03-30T15:16:20.762Z,70.11
2023-03-30T15:18:47.701Z,68.38
2023-03-30T15:21:14.764Z,64.64
2023-03-30T15:23:44.638Z,66.39
2023-03-30T15:26:12.357Z,66.61
2023-03-30T15:28:51.023Z,67.51
2023-03-30T15:31:18.970Z,66.74
2023-03-30T15:33:57.908Z,66.23
2023-03-30T15:36:35.218Z,68.71
2023-03-30T15:39:01.676Z,68.18
2023-03-30T15:41:44.595Z,67.77
2023-03-30T15:44:16.475Z,68.58
2023-03-30T15:46:43.675Z,68.92
2023-03-30T15:49:14.571Z,68.45
2023-03-30T15:51:47.352Z,70.20
2023-03-30T15:54:16.819Z,71.14
2023-03-30T15:57:12.898Z,71.04
2023-03-30T15:59:45.151Z,70.60
2023-03-30T16:02:21.198Z,71.25
2023-03-30T16:04:51.405Z,70.80
2023-03-30T16:07:20.642Z,68.68
2023-03-30T16:09:47.684Z,68.98
2023-03-30T16:12:17.492Z,66.49
2023-03-30T16:14:44.043Z,65.40
2023-03-30T16:17:12.951Z,65.25
2023-03-30T16:19:41.026Z,63.98
2023-03-30T16:22:08.551Z,63.49
2023-03-30T16:24:35.984Z,65.48
2023-03-30T16:27:03.787Z,67.17
2023-03-30T16:29:31.249Z,68.40
2023-03-30T16:31:58.669Z,69.60
2023-03-30T16:34:25.868Z,68.98
2023-03-30T16:36:52.756Z,69.61
2023-03-30T16:39:29.778Z,70.17
2023-03-30T16:41:56.856Z,70.26
2023-03-30T16:44:24.967Z,69.92
2023-03-30T16:46:52.402Z,69.50
2023-03-30T16:49:21.998Z,68.92
2023-03-30T16:51:48.700Z,69.26
2023-03-30T16:54:29.563Z,69.29
2023-03-30T16:56:57.512Z,69.27
2023-03-30T16:59:25.925Z,69.66
2023-03-30T17:01:52.599Z,69.93
2023-03-30T17:04:19.423Z,70.84
2023-03-30T17:06:45.795Z,71.28
2023-03-30T17:09:15.238Z,71.85
2023-03-30T17:11:41.536Z,71.74
2023-03-30T17:14:07.850Z,70.96
2023-03-30T17:16:34.855Z,72.05
2023-03-30T17:19:01.261Z,72.12
2023-03-30T17:21:27.633Z,72.67
2023-03-30T17:23:53.960Z,73.27
2023-03-30T17:26:20.927Z,73.30
2023-03-30T17:28:47.688Z,74.24
2023-03-30T17:31:19.948Z,74.34
2023-03-30T17:33:47.699Z,74.88
2023-03-30T17:36:22.785Z,74.87
2023-03-30T17:38:50.469Z,75.36
2023-03-30T17:41:19.228Z,75.07
2023-03-30T17:43:47.706Z,75.13
2023-03-30T17:46:16.784Z,75.98
2023-03-30T17:48:43.336Z,76.05
2023-03-30T17:51:09.676Z,77.29
2023-03-30T17:53:36.869Z,76.12
2023-03-30T17:56:03.222Z,76.33
2023-03-30T17:58:33.874Z,76.42
2023-03-30T18:01:02.304Z,76.11
2023-03-30T18:03:29.409Z,76.94
2023-03-30T18:05:57.607Z,76.89
2023-03-30T18:08:25.129Z,76.27
2023-03-30T18:10:53.639Z,77.69
2023-03-30T18:13:21.432Z,78.86
2023-03-30T18:15:50.083Z,79.00
2023-03-30T18:18:22.562Z,78.93
2023-03-30T18:20:54.097Z,78.31
2023-03-30T18:23:20.816Z,78.63
2023-03-30T18:25:47.932Z,79.99
2023-03-30T18:28:22.979Z,79.73
2023-03-30T18:30:50.945Z,78.99
2023-03-30T18:33:17.401Z,79.68
2023-03-30T18:35:46.382Z,78.95
2023-03-30T18:38:15.241Z,80.00
2023-03-30T18:40:45.294Z,79.29
2023-03-30T18:43:12.749Z,78.95
2023-03-30T18:45:41.522Z,78.72
2023-03-30T18:48:11.286Z,79.09
2023-03-30T18:50:40.125Z,79.43
2023-03-30T18:53:15.363Z,79.69
2023-03-30T18:55:44.923Z,78.78
2023-03-30T18:58:14.488Z,79.79
2023-03-30T19:00:40.826Z,80.57
2023-03-30T19:03:07.356Z,80.17
2023-03-30T19:05:34.916Z,80.63
2023-03-30T19:08:01.908Z,80.36
2023-03-30T19:10:30.980Z,79.85
2023-03-30T19:12:58.019Z,80.06
2023-03-30T19:15:26.218Z,80.03
2023-03-30T19:17:53.165Z,80.18
2023-03-30T19:20:22.507Z,81.21
2023-03-30T19:22:49.642Z,80.82
2023-03-30T19:25:17.839Z,81.42
2023-03-30T19:27:55.388Z,81.14
2023-03-30T19:30:28.369Z,80.70
2023-03-30T19:32:58.153Z,81.38
2023-03-30T19:35:25.584Z,81.59
2023-03-30T19:37:52.766Z,81.79
2023-03-30T19:40:20.355Z,82.56
2023-03-30T19:42:47.731Z,82.19
2023-03-30T19:45:16.512Z,82.14
2023-03-30T19:47:43.572Z,83.14
2023-03-30T19:50:14.927Z,82.85
2023-03-30T19:52:41.807Z,82.80
2023-03-30T19:55:09.357Z,83.28
2023-03-30T19:57:37.107Z,83.04
2023-03-30T20:00:12.107Z,83.70
2023-03-30T20:02:39.971Z,82.59
2023-03-30T20:05:06.697Z,83.66
2023-03-30T20:07:33.067Z,85.35
2023-03-30T20:09:59.392Z,86.37
2023-03-30T20:12:25.696Z,86.62
2023-03-30T20:14:52.103Z,86.39
2023-03-30T20:17:21.698Z,85.40
2023-03-30T20:19:48.074Z,85.34
2023-03-30T20:22:14.389Z,84.77
2023-03-30T20:24:40.755Z,85.15
2023-03-30T20:27:07.155Z,86.77
2023-03-30T20:29:33.476Z,87.02
2023-03-30T20:31:59.865Z,87.08
2023-03-30T20:34:26.997Z,87.41
2023-03-30T20:36:53.323Z,88.80
2023-03-30T20:39:22.096Z,88.14
2023-03-30T20:41:53.804Z,89.48
2023-03-30T20:44:29.742Z,89.06
2023-03-30T20:46:58.039Z,88.63
2023-03-30T20:49:25.576Z,89.13
2023-03-30T20:51:52.977Z,89.41
2023-03-30T20:54:19.806Z,90.48
2023-03-30T20:56:46.172Z,88.39
2023-03-30T20:59:12.566Z,87.20
2023-03-30T21:01:40.660Z,86.28
2023-03-30T21:04:08.139Z,85.69
2023-03-30T21:06:34.803Z,86.50
2023-03-30T21:09:04.676Z,85.83
2023-03-30T21:11:34.485Z,84.22
2023-03-30T21:14:01.946Z,83.68
2023-03-30T21:16:28.862Z,83.88
2023-03-30T21:18:55.299Z,83.15
2023-03-30T21:21:21.695Z,82.06
2023-03-30T21:23:48.566Z,82.90
2023-03-30T21:26:15.713Z,82.35
2023-03-30T21:28:42.015Z,82.10
2023-03-30T21:31:11.177Z,81.28
2023-03-30T21:33:37.739Z,81.19
2023-03-30T21:36:05.213Z,80.62
2023-03-30T21:38:32.233Z,80.68
2023-03-30T21:41:07.564Z,80.55
2023-03-30T21:43:36.305Z,80.28
2023-03-30T21:46:14.058Z,81.02
2023-03-30T21:48:41.850Z,81.47
2023-03-30T21:51:14.168Z,81.04
2023-03-30T21:53:42.310Z,81.06
2023-03-30T21:56:09.516Z,81.87
2023-03-30T21:58:35.928Z,81.14
2023-03-30T22:01:11.751Z,80.71
2023-03-30T22:03:41.124Z,80.77
2023-03-30T22:06:09.693Z,81.95
2023-03-30T22:08:36.520Z,81.30
2023-03-30T22:11:06.680Z,81.51
2023-03-30T22:13:33.385Z,81.06
2023-03-30T22:16:06.491Z,81.81
2023-03-30T22:18:34.181Z,82.21
2023-03-30T22:21:03.055Z,82.34
2023-03-30T22:23:30.353Z,81.72
2023-03-30T22:25:57.432Z,81.35
2023-03-30T22:28:24.770Z,81.47
2023-03-30T22:30:51.214Z,82.10
2023-03-30T22:33:17.936Z,82.24
2023-03-30T22:35:46.593Z,81.88
2023-03-30T22:38:13.447Z,81.36
2023-03-30T22:40:41.803Z,81.75
2023-03-30T22:43:09.182Z,81.40
2023-03-30T22:45:35.860Z,81.32
2023-03-30T22:48:02.501Z,81.42
2023-03-30T22:50:29.646Z,81.96
2023-03-30T22:52:57.135Z,81.75
2023-03-30T22:55:24.196Z,82.15
2023-03-30T22:57:54.418Z,81.66
2023-03-30T23:00:21.809Z,81.96
2023-03-30T23:02:51.476Z,81.69
2023-03-30T23:05:20.947Z,81.37
2023-03-30T23:07:49.004Z,82.17
2023-03-30T23:10:19.043Z,81.58
2023-03-30T23:12:45.993Z,82.16
2023-03-30T23:15:13.530Z,81.93
2023-03-30T23:17:40.364Z,81.62
2023-03-30T23:20:10.348Z,81.42
2023-03-30T23:22:38.068Z,81.55
2023-03-30T23:25:05.929Z,82.26
2023-03-30T23:27:32.732Z,83.33
2023-03-30T23:29:59.094Z,84.24
2023-03-30T23:32:25.638Z,86.32
2023-03-30T23:34:52.029Z,86.35
2023-03-30T23:37:18.410Z,88.17
2023-03-30T23:39:44.888Z,89.96
2023-03-30T23:42:11.254Z,92.99
2023-03-30T23:44:37.575Z,92.23
2023-03-30T23:47:03.942Z,93.76
2023-03-30T23:49:31.147Z,95.11
2023-03-30T23:51:57.561Z,97.25
2023-03-30T23:54:23.860Z,96.65
2023-03-30T23:56:57.136Z,96.61
2023-03-30T23:59:24.583Z,99.13
